createdAt,value
2022-10-06T00:02:09.674Z,4.80
2022-10-06T00:05:12.739Z,5.37
2022-10-06T00:08:17.160Z,5.10
2022-10-06T00:11:19.981Z,5.10
2022-10-06T00:14:22.794Z,4.50
2022-10-06T00:17:25.586Z,5.30
2022-10-06T00:20:28.829Z,4.60
2022-10-06T00:23:32.987Z,4.93
2022-10-06T00:26:36.029Z,5.03
2022-10-06T00:29:42.374Z,4.87
2022-10-06T00:32:52.599Z,4.90
2022-10-06T00:35:58.672Z,4.97
2022-10-06T00:39:02.919Z,4.97
2022-10-06T00:42:06.033Z,5.17
2022-10-06T00:45:09.837Z,4.97
2022-10-06T00:48:18.069Z,5.20
2022-10-06T00:51:22.226Z,4.87
2022-10-06T00:54:26.626Z,4.80
2022-10-06T00:57:29.402Z,5.00
2022-10-06T01:00:32.602Z,5.07
2022-10-06T01:03:38.665Z,4.70
2022-10-06T01:06:45.219Z,4.80
2022-10-06T01:09:49.776Z,4.93
2022-10-06T01:12:53.046Z,4.63
2022-10-06T01:16:02.346Z,4.93
2022-10-06T01:19:08.772Z,4.73
2022-10-06T01:22:15.300Z,5.03
2022-10-06T01:25:20.610Z,4.90
2022-10-06T01:28:23.927Z,4.47
2022-10-06T01:31:27.800Z,4.40
2022-10-06T01:34:30.632Z,4.47
2022-10-06T01:37:33.485Z,4.47
2022-10-06T01:40:37.614Z,4.37
2022-10-06T01:43:40.448Z,5.07
2022-10-06T01:46:43.288Z,4.67
2022-10-06T01:49:46.091Z,4.87
2022-10-06T01:52:49.057Z,4.63
2022-10-06T01:55:53.285Z,4.43
2022-10-06T01:58:56.105Z,4.60
2022-10-06T02:01:58.946Z,4.70
2022-10-06T02:05:01.805Z,4.50
2022-10-06T02:08:04.857Z,4.53
2022-10-06T02:11:12.008Z,4.70
2022-10-06T02:14:14.860Z,4.73
2022-10-06T02:17:17.635Z,4.53
2022-10-06T02:20:20.384Z,4.90
2022-10-06T02:23:23.150Z,4.77
2022-10-06T02:26:27.488Z,4.80
2022-10-06T02:29:30.279Z,4.77
2022-10-06T02:32:37.177Z,4.93
2022-10-06T02:35:42.793Z,5.17
2022-10-06T02:38:45.820Z,4.63
2022-10-06T02:41:49.934Z,5.17
2022-10-06T02:44:52.927Z,4.67
2022-10-06T02:47:55.730Z,5.50
2022-10-06T02:50:59.969Z,4.80
2022-10-06T02:54:02.853Z,5.33
2022-10-06T02:57:06.957Z,4.63
2022-10-06T03:00:11.521Z,4.80
2022-10-06T03:03:14.461Z,4.80
2022-10-06T03:06:24.625Z,5.03
2022-10-06T03:09:27.379Z,4.73
2022-10-06T03:12:31.904Z,4.90
2022-10-06T03:15:34.821Z,4.87
2022-10-06T03:18:37.608Z,5.30
2022-10-06T03:21:43.052Z,5.30
2022-10-06T03:24:45.843Z,5.07
2022-10-06T03:27:49.923Z,5.10
2022-10-06T03:30:53.034Z,4.73
2022-10-06T03:33:56.754Z,5.50
2022-10-06T03:36:59.539Z,5.03
2022-10-06T03:40:02.380Z,4.87
2022-10-06T03:43:06.511Z,4.30
2022-10-06T03:46:11.234Z,4.90
2022-10-06T03:49:14.032Z,4.63
2022-10-06T03:52:16.781Z,4.50
2022-10-06T03:55:19.526Z,4.77
2022-10-06T03:58:23.604Z,4.20
2022-10-06T04:01:28.935Z,4.80
2022-10-06T04:04:31.903Z,4.80
2022-10-06T04:07:34.632Z,3.80
2022-10-06T04:10:37.458Z,3.70
2022-10-06T04:13:42.891Z,3.87
2022-10-06T04:16:47.483Z,3.70
2022-10-06T04:19:50.282Z,4.27
2022-10-06T04:22:53.041Z,4.07
2022-10-06T04:25:59.739Z,3.83
2022-10-06T04:29:04.206Z,3.80
2022-10-06T04:32:06.971Z,3.97
2022-10-06T04:35:10.482Z,3.17
2022-10-06T04:38:14.277Z,2.57
2022-10-06T04:41:18.851Z,2.33
2022-10-06T04:44:22.977Z,2.20
2022-10-06T04:47:25.773Z,2.03
2022-10-06T04:50:28.541Z,2.20
2022-10-06T04:53:32.194Z,2.10
2022-10-06T04:56:34.917Z,2.10
2022-10-06T04:59:57.941Z,2.13
2022-10-06T05:03:02.238Z,1.90
2022-10-06T05:06:06.252Z,2.40
2022-10-06T05:09:11.245Z,1.90
2022-10-06T05:12:14.006Z,2.10
2022-10-06T05:15:18.353Z,1.80
2022-10-06T05:18:21.102Z,2.00
2022-10-06T05:21:25.570Z,1.70
2022-10-06T05:24:28.416Z,1.80
2022-10-06T05:27:31.214Z,1.83
2022-10-06T05:30:35.255Z,1.70
2022-10-06T05:33:38.286Z,1.80
2022-10-06T05:36:41.016Z,1.70
2022-10-06T05:39:43.760Z,1.37
2022-10-06T05:42:46.578Z,1.90
2022-10-06T05:45:58.549Z,1.90
2022-10-06T05:49:03.169Z,1.80
2022-10-06T05:52:05.944Z,1.87
2022-10-06T05:55:10.203Z,1.80
2022-10-06T05:58:16.532Z,1.80
2022-10-06T06:01:24.829Z,1.93
2022-10-06T06:04:27.628Z,1.70
2022-10-06T06:07:30.391Z,1.80
2022-10-06T06:10:33.521Z,1.83
2022-10-06T06:13:36.814Z,2.10
2022-10-06T06:16:42.112Z,2.03
2022-10-06T06:19:44.936Z,1.97
2022-10-06T06:22:53.068Z,1.60
2022-10-06T06:26:02.542Z,1.70
2022-10-06T06:29:06.608Z,1.70
2022-10-06T06:32:10.974Z,1.70
2022-10-06T06:35:13.813Z,1.80
2022-10-06T06:38:16.580Z,1.73
2022-10-06T06:41:21.179Z,1.83
2022-10-06T06:44:23.951Z,1.87
2022-10-06T06:47:28.090Z,1.87
2022-10-06T06:50:31.576Z,1.80
2022-10-06T06:53:34.723Z,2.03
2022-10-06T06:56:38.897Z,1.77
2022-10-06T06:59:41.665Z,2.40
2022-10-06T07:02:45.860Z,2.13
2022-10-06T07:05:48.897Z,2.10
2022-10-06T07:08:52.896Z,2.00
2022-10-06T07:11:56.007Z,1.93
2022-10-06T07:15:16.261Z,1.83
2022-10-06T07:18:38.141Z,2.07
2022-10-06T07:21:58.749Z,2.47
2022-10-06T07:25:11.382Z,1.90
2022-10-06T07:28:17.004Z,2.10
2022-10-06T07:31:19.930Z,2.30
2022-10-06T07:34:24.069Z,2.10
2022-10-06T07:37:28.755Z,1.90
2022-10-06T07:40:31.542Z,2.20
2022-10-06T07:43:34.317Z,2.13
2022-10-06T07:46:37.046Z,2.10
2022-10-06T07:49:42.381Z,2.13
2022-10-06T07:52:45.124Z,2.03
2022-10-06T07:55:49.642Z,2.00
2022-10-06T07:58:52.519Z,2.60
2022-10-06T08:01:55.449Z,2.40
2022-10-06T08:04:59.577Z,2.40
2022-10-06T08:08:02.523Z,2.30
2022-10-06T08:11:06.720Z,2.20
2022-10-06T08:14:10.604Z,1.97
2022-10-06T08:17:13.891Z,2.47
2022-10-06T08:20:18.365Z,2.20
2022-10-06T08:23:21.261Z,2.27
2022-10-06T08:26:26.125Z,2.13
2022-10-06T08:29:28.901Z,2.67
2022-10-06T08:32:32.113Z,2.63
2022-10-06T08:35:36.278Z,2.43
2022-10-06T08:38:40.026Z,2.30
2022-10-06T08:41:48.582Z,2.73
2022-10-06T08:44:58.156Z,2.23
2022-10-06T08:48:04.914Z,2.53
2022-10-06T08:51:19.853Z,2.40
2022-10-06T08:54:29.833Z,2.37
2022-10-06T08:57:37.841Z,2.07
2022-10-06T09:00:40.733Z,2.37
2022-10-06T09:03:47.313Z,2.50
2022-10-06T09:07:00.713Z,2.63
2022-10-06T09:10:17.233Z,2.50
2022-10-06T09:13:25.366Z,2.60
2022-10-06T09:16:31.660Z,3.23
2022-10-06T09:19:41.462Z,2.50
2022-10-06T09:22:46.977Z,2.50
2022-10-06T09:25:50.186Z,2.33
2022-10-06T09:28:53.561Z,2.77
2022-10-06T09:31:56.317Z,2.60
2022-10-06T09:35:00.563Z,3.23
2022-10-06T09:38:08.953Z,2.43
2022-10-06T09:41:13.404Z,2.60
2022-10-06T09:44:24.737Z,2.43
2022-10-06T09:47:40.349Z,2.50
2022-10-06T09:50:43.112Z,2.20
2022-10-06T09:54:10.468Z,2.30
2022-10-06T09:57:17.539Z,2.27
2022-10-06T10:00:27.733Z,2.50
2022-10-06T10:04:02.001Z,2.60
2022-10-06T10:07:16.737Z,3.10
2022-10-06T10:10:23.028Z,2.43
2022-10-06T10:13:29.376Z,2.50
2022-10-06T10:16:35.442Z,2.50
2022-10-06T10:19:42.886Z,2.30
2022-10-06T10:22:49.016Z,2.33
2022-10-06T10:26:27.290Z,2.60
2022-10-06T10:29:49.412Z,2.30
2022-10-06T10:33:01.507Z,2.37
2022-10-06T10:36:06.606Z,2.27
2022-10-06T10:39:16.152Z,3.30
2022-10-06T10:42:27.049Z,2.80
2022-10-06T10:45:33.946Z,2.47
2022-10-06T10:48:41.454Z,1.90
2022-10-06T10:51:50.866Z,2.43
2022-10-06T10:55:06.831Z,2.27
2022-10-06T10:58:18.819Z,2.17
2022-10-06T11:01:30.498Z,2.00
2022-10-06T11:04:33.642Z,2.20
2022-10-06T11:07:44.774Z,2.10
2022-10-06T11:10:51.336Z,2.40
2022-10-06T11:13:58.941Z,2.53
2022-10-06T11:17:06.933Z,1.90
2022-10-06T11:20:25.614Z,2.17
2022-10-06T11:23:47.424Z,2.10
2022-10-06T11:27:17.011Z,2.50
2022-10-06T11:30:26.260Z,2.20
2022-10-06T11:33:34.185Z,2.63
2022-10-06T11:36:47.426Z,2.60
2022-10-06T11:39:59.556Z,2.30
2022-10-06T11:43:10.369Z,2.53
2022-10-06T11:46:31.159Z,2.67
2022-10-06T11:49:39.375Z,3.03
2022-10-06T11:52:46.591Z,3.00
2022-10-06T11:55:49.401Z,2.50
2022-10-06T11:59:11.070Z,2.20
2022-10-06T12:02:38.167Z,2.40
2022-10-06T12:05:57.207Z,2.10
2022-10-06T12:09:00.981Z,2.13
2022-10-06T12:12:42.915Z,2.43
2022-10-06T12:19:31.469Z,2.17
2022-10-06T12:22:36.895Z,2.20
2022-10-06T12:25:48.072Z,2.47
2022-10-06T12:28:57.132Z,2.10
2022-10-06T12:32:13.419Z,2.47
2022-10-06T12:35:31.279Z,2.00
2022-10-06T12:38:43.148Z,2.33
2022-10-06T12:41:57.687Z,2.27
2022-10-06T12:45:01.323Z,1.97
2022-10-06T12:48:08.544Z,2.60
2022-10-06T12:51:24.149Z,2.20
2022-10-06T12:54:34.875Z,2.50
2022-10-06T12:57:47.403Z,2.30
2022-10-06T13:00:51.133Z,2.00
2022-10-06T13:03:55.592Z,2.40
2022-10-06T13:06:58.734Z,2.27
2022-10-06T13:10:19.458Z,2.27
2022-10-06T13:13:24.724Z,2.37
2022-10-06T13:16:29.475Z,1.93
2022-10-06T13:19:33.664Z,2.20
2022-10-06T13:22:36.484Z,2.40
2022-10-06T13:25:44.229Z,2.10
2022-10-06T13:28:48.902Z,2.33
2022-10-06T13:31:53.432Z,2.30
2022-10-06T13:34:58.696Z,2.30
2022-10-06T13:38:03.938Z,2.50
2022-10-06T13:41:20.783Z,2.37
2022-10-06T13:44:31.603Z,2.53
2022-10-06T13:47:34.447Z,2.47
2022-10-06T13:50:39.049Z,2.20
2022-10-06T13:53:45.828Z,2.40
2022-10-06T13:56:48.638Z,1.90
2022-10-06T14:00:05.338Z,1.90
2022-10-06T14:03:11.212Z,1.90
2022-10-06T14:06:21.257Z,2.00
2022-10-06T14:09:26.952Z,1.90
2022-10-06T14:12:29.731Z,2.10
2022-10-06T14:15:39.893Z,2.20
2022-10-06T14:18:45.504Z,2.30
2022-10-06T14:21:51.315Z,2.37
2022-10-06T14:24:54.952Z,2.13
2022-10-06T14:27:57.883Z,2.33
2022-10-06T14:31:00.897Z,2.00
2022-10-06T14:34:05.123Z,2.40
2022-10-06T14:37:15.141Z,2.27
2022-10-06T14:40:17.855Z,2.60
2022-10-06T14:43:20.591Z,2.00
2022-10-06T14:46:24.806Z,2.30
2022-10-06T14:49:27.703Z,2.17
2022-10-06T14:52:32.044Z,2.17
2022-10-06T14:55:34.812Z,2.20
2022-10-06T14:58:38.668Z,1.90
2022-10-06T15:01:42.139Z,2.30
2022-10-06T15:04:44.873Z,2.30
2022-10-06T15:08:06.445Z,2.37
2022-10-06T15:11:09.162Z,2.47
2022-10-06T15:14:12.200Z,2.40
2022-10-06T15:17:15.115Z,2.47
2022-10-06T15:20:17.889Z,2.60
2022-10-06T15:23:22.024Z,2.40
2022-10-06T15:26:42.532Z,2.10
2022-10-06T15:29:45.331Z,1.87
2022-10-06T15:32:48.195Z,2.10
2022-10-06T15:36:15.055Z,2.40
2022-10-06T15:39:20.573Z,2.27
2022-10-06T15:42:25.130Z,2.30
2022-10-06T15:45:28.273Z,2.07
2022-10-06T15:48:31.030Z,2.13
2022-10-06T15:51:37.134Z,2.30
2022-10-06T15:54:43.632Z,2.50
2022-10-06T15:57:46.390Z,2.40
2022-10-06T16:00:49.170Z,2.30
2022-10-06T16:03:53.220Z,2.77
2022-10-06T16:06:56.421Z,2.47
2022-10-06T16:10:00.554Z,2.80
2022-10-06T16:13:03.306Z,2.57
2022-10-06T16:16:06.429Z,2.50
2022-10-06T16:19:09.881Z,2.77
2022-10-06T16:22:14.851Z,2.83
2022-10-06T16:25:18.959Z,2.70
2022-10-06T16:28:21.759Z,2.87
2022-10-06T16:31:24.751Z,2.43
2022-10-06T16:34:27.701Z,2.50
2022-10-06T16:37:30.515Z,2.93
2022-10-06T16:40:34.678Z,2.30
2022-10-06T16:43:39.759Z,2.97
2022-10-06T16:46:42.864Z,2.77
2022-10-06T16:49:45.641Z,2.80
2022-10-06T16:52:48.402Z,2.70
2022-10-06T16:55:52.549Z,3.00
2022-10-06T16:58:56.974Z,3.27
2022-10-06T17:01:59.721Z,2.67
2022-10-06T17:05:02.732Z,2.80
2022-10-06T17:08:05.515Z,3.13
2022-10-06T17:11:11.820Z,2.80
2022-10-06T17:14:15.248Z,2.83
2022-10-06T17:17:18.003Z,3.47
2022-10-06T17:20:20.764Z,2.83
2022-10-06T17:23:23.496Z,2.57
2022-10-06T17:26:29.300Z,2.87
2022-10-06T17:29:32.077Z,2.83
2022-10-06T17:32:34.820Z,3.20
2022-10-06T17:35:38.248Z,2.60
2022-10-06T17:38:43.655Z,2.70
2022-10-06T17:41:49.066Z,3.20
2022-10-06T17:44:52.584Z,3.50
2022-10-06T17:47:55.409Z,3.40
2022-10-06T17:50:59.584Z,3.80
2022-10-06T17:54:04.551Z,3.83
2022-10-06T17:57:08.675Z,3.33
2022-10-06T18:00:12.952Z,4.20
2022-10-06T18:03:15.820Z,3.87
2022-10-06T18:06:19.093Z,4.37
2022-10-06T18:09:22.349Z,4.93
2022-10-06T18:12:25.513Z,5.13
2022-10-06T18:15:28.304Z,4.83
2022-10-06T18:18:31.163Z,4.90
2022-10-06T18:21:37.344Z,4.80
2022-10-06T18:24:40.878Z,4.77
2022-10-06T18:27:47.532Z,4.90
2022-10-06T18:30:51.305Z,4.27
2022-10-06T18:37:17.202Z,4.87
2022-10-06T18:40:19.959Z,5.03
2022-10-06T18:43:24.355Z,5.17
2022-10-06T18:46:46.155Z,5.40
2022-10-06T18:49:48.914Z,4.97
2022-10-06T18:52:51.670Z,5.10
2022-10-06T18:55:54.438Z,5.33
2022-10-06T18:59:00.026Z,5.27
2022-10-06T19:02:02.838Z,5.33
2022-10-06T19:05:06.369Z,5.93
2022-10-06T19:08:09.389Z,5.70
2022-10-06T19:11:29.964Z,5.87
2022-10-06T19:14:37.780Z,5.73
2022-10-06T19:17:41.609Z,5.23
2022-10-06T19:20:51.581Z,5.43
2022-10-06T19:23:54.318Z,5.40
2022-10-06T19:26:57.740Z,5.80
2022-10-06T19:30:01.802Z,5.53
2022-10-06T19:33:06.088Z,6.00
2022-10-06T19:36:11.612Z,6.33
2022-10-06T19:39:14.338Z,5.87
2022-10-06T19:42:37.002Z,7.10
2022-10-06T19:45:41.123Z,6.20
2022-10-06T19:48:43.954Z,5.50
2022-10-06T19:51:47.311Z,5.47
2022-10-06T19:54:50.097Z,5.90
2022-10-06T19:57:52.892Z,5.33
2022-10-06T20:00:57.019Z,5.40
2022-10-06T20:04:00.348Z,5.00
2022-10-06T20:07:03.231Z,5.80
2022-10-06T20:10:06.626Z,5.80
2022-10-06T20:13:09.784Z,5.67
2022-10-06T20:16:17.212Z,5.60
2022-10-06T20:19:21.031Z,5.20
2022-10-06T20:22:23.768Z,5.43
2022-10-06T20:25:26.769Z,5.67
2022-10-06T20:28:29.548Z,5.43
2022-10-06T20:31:35.863Z,5.90
2022-10-06T20:34:38.771Z,6.90
2022-10-06T20:37:42.173Z,7.17
2022-10-06T20:40:49.116Z,6.67
2022-10-06T20:43:53.849Z,7.07
2022-10-06T20:46:58.345Z,6.97
2022-10-06T20:50:01.046Z,7.37
2022-10-06T20:53:03.821Z,7.10
2022-10-06T20:56:07.338Z,6.87
2022-10-06T20:59:13.350Z,7.17
2022-10-06T21:02:17.651Z,6.67
2022-10-06T21:05:20.611Z,6.00
2022-10-06T21:08:23.885Z,5.90
2022-10-06T21:11:27.081Z,6.10
2022-10-06T21:14:29.961Z,6.00
2022-10-06T21:17:34.051Z,5.90
2022-10-06T21:20:38.251Z,5.20
2022-10-06T21:23:44.545Z,5.50
2022-10-06T21:26:47.382Z,6.07
2022-10-06T21:29:50.175Z,5.17
2022-10-06T21:32:54.321Z,5.77
2022-10-06T21:36:00.657Z,5.40
2022-10-06T21:39:04.533Z,5.30
2022-10-06T21:42:07.650Z,5.80
2022-10-06T21:45:11.075Z,5.17
2022-10-06T21:48:15.229Z,5.17
2022-10-06T21:51:18.001Z,5.53
2022-10-06T21:54:22.198Z,5.93
2022-10-06T21:57:25.029Z,5.37
2022-10-06T22:00:27.876Z,5.33
2022-10-06T22:03:32.124Z,5.60
2022-10-06T22:06:37.026Z,6.03
2022-10-06T22:09:39.869Z,5.83
2022-10-06T22:12:42.765Z,5.63
2022-10-06T22:15:45.645Z,5.73
2022-10-06T22:18:49.964Z,5.90
2022-10-06T22:21:52.880Z,5.93
2022-10-06T22:24:55.686Z,5.63
2022-10-06T22:27:58.622Z,5.50
2022-10-06T22:31:06.322Z,5.40
2022-10-06T22:34:12.500Z,5.53
2022-10-06T22:37:15.281Z,5.23
2022-10-06T22:40:18.117Z,5.43
2022-10-06T22:43:20.964Z,5.40
2022-10-06T22:46:24.404Z,5.27
2022-10-06T22:49:28.612Z,4.93
2022-10-06T22:52:31.412Z,5.77
2022-10-06T22:55:34.228Z,6.93
2022-10-06T22:58:38.745Z,6.10
2022-10-06T23:01:41.629Z,6.27
2022-10-06T23:04:45.753Z,5.97
2022-10-06T23:07:50.529Z,6.53
2022-10-06T23:10:53.725Z,5.40
2022-10-06T23:13:56.765Z,5.83
2022-10-06T23:16:59.682Z,5.20
2022-10-06T23:20:04.404Z,5.27
2022-10-06T23:23:07.292Z,4.90
2022-10-06T23:26:12.301Z,4.70
2022-10-06T23:29:15.279Z,4.93
2022-10-06T23:32:18.052Z,4.77
2022-10-06T23:35:22.208Z,5.40
2022-10-06T23:38:25.169Z,5.50
2022-10-06T23:41:27.925Z,5.30
2022-10-06T23:44:30.829Z,5.93
2022-10-06T23:47:33.567Z,5.37
2022-10-06T23:50:37.712Z,5.27
2022-10-06T23:53:41.195Z,5.00
2022-10-06T23:56:44.018Z,5.13
2022-10-06T23:59:46.788Z,4.80
